createdAt,value
2023-01-05T00:02:08.419Z,100923.53
2023-01-05T00:07:09.955Z,100889.53
2023-01-05T00:12:30.104Z,100901.56
2023-01-05T00:17:50.572Z,100885.47
2023-01-05T00:22:53.785Z,100884.59
2023-01-05T00:27:58.033Z,100881.09
2023-01-05T00:32:59.555Z,100869.13
2023-01-05T00:38:01.029Z,100865.72
2023-01-05T00:43:02.723Z,100854.63
2023-01-05T00:48:04.446Z,100846.22
2023-01-05T00:53:05.879Z,100850.47
2023-01-05T00:58:07.322Z,100855.53
2023-01-05T01:03:09.487Z,100871.75
2023-01-05T01:08:10.951Z,100872.63
2023-01-05T01:13:12.350Z,100865.84
2023-01-05T01:18:13.942Z,100846.31
2023-01-05T01:23:15.395Z,100845.44
2023-01-05T01:28:17.026Z,100834.19
2023-01-05T01:33:18.529Z,100819.56
2023-01-05T01:38:20.001Z,100817.78
2023-01-05T01:43:54.186Z,100827.03
2023-01-05T01:49:00.464Z,100805.47
2023-01-05T01:54:07.009Z,100808.47
2023-01-05T01:59:09.371Z,100800.44
2023-01-05T02:04:11.861Z,100804.47
2023-01-05T02:09:13.439Z,100811.44
2023-01-05T02:14:27.550Z,100820.19
2023-01-05T02:19:50.095Z,100801.84
2023-01-05T02:25:12.015Z,100813.13
2023-01-05T02:30:20.750Z,100820.09
2023-01-05T02:35:57.209Z,100842.34
2023-01-05T02:41:06.460Z,100844.25
2023-01-05T02:46:07.984Z,100826.47
2023-01-05T02:51:16.244Z,100839.38
2023-01-05T02:57:06.912Z,100824.34
2023-01-05T03:02:13.594Z,100827.63
2023-01-05T03:07:18.935Z,100827.72
2023-01-05T03:12:51.749Z,100834.72
2023-01-05T03:18:00.340Z,100825.53
2023-01-05T03:23:23.935Z,100833.31
2023-01-05T03:28:57.712Z,100842.84
2023-01-05T03:34:42.191Z,100853.13
2023-01-05T03:39:46.809Z,100862.44
2023-01-05T03:44:49.990Z,100853.13
2023-01-05T03:49:51.927Z,100847.25
2023-01-05T03:54:53.348Z,100856.75
2023-01-05T03:59:54.803Z,100850.81
2023-01-05T04:04:56.225Z,100858.56
2023-01-05T04:09:57.711Z,100859.50
2023-01-05T04:14:59.166Z,100866.34
2023-01-05T04:20:00.673Z,100870.63
2023-01-05T04:25:02.181Z,100881.69
2023-01-05T04:30:04.876Z,100880.84
2023-01-05T04:35:10.934Z,100880.91
2023-01-05T04:40:12.852Z,100883.47
2023-01-05T04:45:14.684Z,100896.22
2023-01-05T04:50:16.189Z,100903.00
2023-01-05T04:55:17.704Z,100904.56
2023-01-05T05:00:19.240Z,100908.78
2023-01-05T05:05:20.721Z,100907.97
2023-01-05T05:10:22.267Z,100908.78
2023-01-05T05:15:23.940Z,100909.59
2023-01-05T05:20:25.436Z,100915.56
2023-01-05T05:25:26.929Z,100923.22
2023-01-05T05:30:28.425Z,100936.81
2023-01-05T05:35:31.060Z,100949.50
2023-01-05T05:40:32.564Z,100948.63
2023-01-05T05:45:34.098Z,100973.25
2023-01-05T05:50:35.573Z,100975.81
2023-01-05T05:55:37.048Z,100969.91
2023-01-05T06:00:38.489Z,100967.41
2023-01-05T06:05:39.914Z,100979.34
2023-01-05T06:10:41.420Z,100981.88
2023-01-05T06:15:43.560Z,100989.53
2023-01-05T06:20:45.020Z,101001.47
2023-01-05T06:25:46.530Z,101003.38
2023-01-05T06:30:48.406Z,101016.97
2023-01-05T06:35:49.871Z,101022.81
2023-01-05T06:40:51.525Z,101023.50
2023-01-05T06:45:53.086Z,101014.97
2023-01-05T06:50:54.609Z,101028.44
2023-01-05T06:55:56.116Z,101038.50
2023-01-05T07:00:57.578Z,101038.47
2023-01-05T07:05:59.079Z,101041.97
2023-01-05T07:11:00.577Z,101033.53
2023-01-05T07:16:02.296Z,101028.50
2023-01-05T07:21:03.938Z,101027.78
2023-01-05T07:26:07.671Z,101034.75
2023-01-05T07:31:09.248Z,101047.50
2023-01-05T07:36:10.875Z,101058.47
2023-01-05T07:41:12.355Z,101061.72
2023-01-05T07:46:13.931Z,101062.38
2023-01-05T07:51:15.453Z,101062.28
2023-01-05T07:56:17.045Z,101074.84
2023-01-05T08:01:18.750Z,101071.16
2023-01-05T08:06:20.690Z,101081.03
2023-01-05T08:11:22.285Z,101081.59
2023-01-05T08:16:23.848Z,101081.34
2023-01-05T08:21:25.608Z,101078.47
2023-01-05T08:26:27.198Z,101089.31
2023-01-05T08:31:30.698Z,101096.66
2023-01-05T08:36:32.943Z,101110.59
2023-01-05T08:41:37.480Z,101104.75
2023-01-05T08:46:39.149Z,101102.19
2023-01-05T08:51:40.737Z,101136.75
2023-01-05T08:56:43.989Z,101142.03
2023-01-05T09:01:45.537Z,101161.84
2023-01-05T09:06:47.237Z,101166.16
2023-01-05T09:11:48.633Z,101172.28
2023-01-05T09:17:06.337Z,101166.03
2023-01-05T09:22:08.702Z,101175.75
2023-01-05T09:27:10.352Z,101168.38
2023-01-05T09:32:11.790Z,101182.94
2023-01-05T09:37:13.229Z,101186.66
2023-01-05T09:42:19.431Z,101184.00
2023-01-05T09:47:32.473Z,101193.13
2023-01-05T09:52:38.416Z,101186.47
2023-01-05T09:57:40.412Z,101190.13
2023-01-05T10:02:55.696Z,101186.72
2023-01-05T10:08:04.431Z,101172.91
2023-01-05T10:13:08.570Z,101171.13
2023-01-05T10:18:16.481Z,101172.09
2023-01-05T10:23:33.193Z,101179.09
2023-01-05T10:28:48.705Z,101166.25
2023-01-05T10:34:07.187Z,101172.38
2023-01-05T10:39:37.692Z,101158.00
2023-01-05T10:44:59.711Z,101153.38
2023-01-05T10:50:03.590Z,101150.88
2023-01-05T10:55:15.998Z,101156.00
2023-01-05T11:00:22.694Z,101153.31
2023-01-05T11:05:45.887Z,101152.88
2023-01-05T11:11:21.187Z,101142.56
2023-01-05T11:16:32.709Z,101150.47
2023-01-05T11:21:37.932Z,101159.81
2023-01-05T11:26:49.529Z,101161.22
2023-01-05T11:31:58.616Z,101159.00
2023-01-05T11:37:08.605Z,101160.31
2023-01-05T11:42:16.374Z,101168.22
2023-01-05T11:47:26.208Z,101168.06
2023-01-05T11:52:34.729Z,101169.41
2023-01-05T11:57:39.287Z,101178.53
2023-01-05T12:02:59.637Z,101172.88
2023-01-05T12:08:17.835Z,101161.13
2023-01-05T12:13:42.100Z,101155.47
2023-01-05T12:18:56.325Z,101154.78
2023-01-05T12:24:15.965Z,101163.00
2023-01-05T12:35:23.312Z,101183.38
2023-01-05T12:40:27.822Z,101175.47
2023-01-05T12:45:51.059Z,101184.28
2023-01-05T12:51:11.543Z,101176.81
2023-01-05T12:56:18.752Z,101164.91
2023-01-05T13:01:25.288Z,101168.41
2023-01-05T13:06:31.242Z,101170.97
2023-01-05T13:11:41.303Z,101172.94
2023-01-05T13:16:54.213Z,101165.50
2023-01-05T13:22:04.734Z,101163.72
2023-01-05T13:27:06.357Z,101163.03
2023-01-05T13:32:34.129Z,101167.91
2023-01-05T13:43:18.741Z,101169.66
2023-01-05T13:49:03.276Z,101171.47
2023-01-05T13:54:13.658Z,101168.03
2023-01-05T13:59:35.247Z,101177.63
2023-01-05T14:04:46.398Z,101182.06
2023-01-05T14:09:55.740Z,101177.00
2023-01-05T14:15:09.400Z,101187.16
2023-01-05T14:20:40.867Z,101196.50
2023-01-05T14:25:48.494Z,101205.13
2023-01-05T14:30:51.687Z,101212.97
2023-01-05T14:35:53.676Z,101215.78
2023-01-05T14:40:56.337Z,101215.03
2023-01-05T14:46:04.103Z,101214.25
2023-01-05T14:51:16.648Z,101215.97
2023-01-05T14:56:37.556Z,101226.31
2023-01-05T15:01:47.939Z,101223.84
2023-01-05T15:07:14.686Z,101224.75
2023-01-05T15:12:40.819Z,101217.19
2023-01-05T15:18:02.853Z,101217.25
2023-01-05T15:23:39.818Z,101216.44
2023-01-05T15:28:53.212Z,101227.59
2023-01-05T15:34:19.531Z,101224.31
2023-01-05T15:39:36.659Z,101216.72
2023-01-05T15:44:42.702Z,101221.94
2023-01-05T15:49:45.305Z,101216.91
2023-01-05T15:54:58.327Z,101207.63
2023-01-05T15:59:59.730Z,101212.00
2023-01-05T16:05:28.719Z,101213.66
2023-01-05T16:10:38.701Z,101221.47
2023-01-05T16:15:42.282Z,101223.25
2023-01-05T16:20:47.491Z,101211.34
2023-01-05T16:25:52.003Z,101213.91
2023-01-05T16:30:54.899Z,101213.13
2023-01-05T16:36:21.663Z,101202.94
2023-01-05T16:41:26.611Z,101205.47
2023-01-05T16:46:35.374Z,101212.34
2023-01-05T16:51:40.018Z,101202.22
2023-01-05T16:57:01.453Z,101205.72
2023-01-05T17:02:03.202Z,101198.13
2023-01-05T17:07:04.645Z,101205.88
2023-01-05T17:12:06.170Z,101197.34
2023-01-05T17:17:12.680Z,101199.06
2023-01-05T17:22:14.093Z,101187.25
2023-01-05T17:27:15.556Z,101196.66
2023-01-05T17:32:17.084Z,101188.25
2023-01-05T17:37:18.559Z,101189.97
2023-01-05T17:42:38.759Z,101192.50
2023-01-05T17:47:40.571Z,101204.34
2023-01-05T17:52:42.308Z,101209.41
2023-01-05T17:57:43.749Z,101199.19
2023-01-05T18:02:45.710Z,101197.47
2023-01-05T18:07:47.737Z,101196.66
2023-01-05T18:12:49.433Z,101193.25
2023-01-05T18:17:50.850Z,101199.22
2023-01-05T18:22:52.301Z,101197.53
2023-01-05T18:27:53.860Z,101191.63
2023-01-05T18:32:55.336Z,101184.84
2023-01-05T18:37:59.300Z,101178.91
2023-01-05T18:43:00.972Z,101178.00
2023-01-05T18:48:03.351Z,101181.41
2023-01-05T18:53:04.831Z,101195.16
2023-01-05T18:58:06.310Z,101192.72
2023-01-05T19:03:08.534Z,101186.97
2023-01-05T19:08:11.822Z,101173.50
2023-01-05T19:13:13.249Z,101174.50
2023-01-05T19:18:14.736Z,101170.31
2023-01-05T19:23:16.171Z,101174.50
2023-01-05T19:28:17.701Z,101167.66
2023-01-05T19:33:19.182Z,101166.81
2023-01-05T19:38:20.590Z,101155.75
2023-01-05T19:43:22.183Z,101150.56
2023-01-05T19:48:23.714Z,101139.63
2023-01-05T19:53:25.682Z,101138.91
2023-01-05T19:58:28.455Z,101146.78
2023-01-05T20:03:29.902Z,101143.47
2023-01-05T20:08:32.839Z,101141.13
2023-01-05T20:13:34.665Z,101138.63
2023-01-05T20:18:36.991Z,101136.91
2023-01-05T20:23:40.482Z,101147.03
2023-01-05T20:28:42.655Z,101150.22
2023-01-05T20:33:44.217Z,101148.31
2023-01-05T20:38:46.111Z,101152.41
2023-01-05T20:43:48.980Z,101143.13
2023-01-05T20:48:51.988Z,101139.56
2023-01-05T20:53:55.153Z,101141.16
2023-01-05T20:58:56.598Z,101137.56
2023-01-05T21:03:59.498Z,101134.00
2023-01-05T21:09:01.621Z,101136.50
2023-01-05T21:14:06.195Z,101136.47
2023-01-05T21:19:08.994Z,101129.56
2023-01-05T21:24:12.596Z,101131.22
2023-01-05T21:29:16.153Z,101129.50
2023-01-05T21:34:17.645Z,101122.63
2023-01-05T21:39:22.501Z,101125.06
2023-01-05T21:44:23.944Z,101122.50
2023-01-05T21:49:26.322Z,101123.34
2023-01-05T21:54:46.393Z,101127.63
2023-01-05T21:59:47.904Z,101122.53
2023-01-05T22:04:49.730Z,101119.09
2023-01-05T22:09:51.280Z,101121.63
2023-01-05T22:14:52.727Z,101117.41
2023-01-05T22:19:54.178Z,101109.75
2023-01-05T22:24:55.616Z,101118.22
2023-01-05T22:29:57.091Z,101111.38
2023-01-05T22:34:58.544Z,101111.34
2023-01-05T22:40:00.071Z,101107.88
2023-01-05T22:45:01.607Z,101121.38
2023-01-05T22:50:04.831Z,101106.91
2023-01-05T22:55:06.731Z,101106.84
2023-01-05T23:00:08.564Z,101101.78
2023-01-05T23:05:10.050Z,101102.75
2023-01-05T23:10:11.641Z,101098.44
2023-01-05T23:15:13.102Z,101088.16
2023-01-05T23:20:15.599Z,101087.22
2023-01-05T23:25:17.746Z,101072.00
2023-01-05T23:30:19.204Z,101063.44
2023-01-05T23:35:20.645Z,101057.38
2023-01-05T23:40:22.199Z,101052.22
2023-01-05T23:45:23.700Z,101055.59
2023-01-05T23:50:25.272Z,101049.66
2023-01-05T23:55:27.112Z,101044.56
